createdAt,value
2022-08-27T00:01:00.721Z,13.50
2022-08-27T00:03:31.042Z,13.50
2022-08-27T00:06:01.285Z,13.40
2022-08-27T00:08:33.275Z,13.50
2022-08-27T00:11:03.996Z,13.20
2022-08-27T00:13:34.342Z,13.20
2022-08-27T00:16:07.284Z,12.80
2022-08-27T00:18:39.584Z,12.10
2022-08-27T00:21:11.757Z,13.00
2022-08-27T00:23:43.308Z,13.10
2022-08-27T00:26:15.417Z,13.40
2022-08-27T00:28:47.974Z,13.30
2022-08-27T00:31:19.851Z,12.70
2022-08-27T00:34:00.733Z,13.20
2022-08-27T00:36:30.783Z,13.90
2022-08-27T00:39:02.906Z,13.80
2022-08-27T00:41:32.926Z,13.30
2022-08-27T00:44:06.276Z,13.30
2022-08-27T00:49:16.969Z,12.30
2022-08-27T00:51:59.773Z,14.20
2022-08-27T00:54:32.776Z,13.50
2022-08-27T00:57:05.146Z,13.60
2022-08-27T00:59:35.556Z,12.10
2022-08-27T01:02:21.883Z,12.30
2022-08-27T01:05:06.719Z,12.40
2022-08-27T01:07:42.791Z,12.40
2022-08-27T01:10:25.534Z,13.90
2022-08-27T01:12:57.840Z,13.00
2022-08-27T01:15:29.472Z,12.40
2022-08-27T01:18:03.723Z,12.90
2022-08-27T01:21:06.928Z,12.40
2022-08-27T01:23:57.630Z,13.60
2022-08-27T01:26:29.904Z,12.10
2022-08-27T01:29:02.605Z,12.50
2022-08-27T01:31:32.558Z,13.50
2022-08-27T01:34:08.242Z,13.00
2022-08-27T01:36:36.374Z,12.30
2022-08-27T01:39:08.210Z,13.80
2022-08-27T01:41:39.121Z,12.90
2022-08-27T01:44:10.241Z,12.50
2022-08-27T01:46:41.052Z,12.70
2022-08-27T01:49:13.879Z,12.70
2022-08-27T01:51:45.527Z,12.80
2022-08-27T01:54:13.527Z,12.10
2022-08-27T01:56:46.334Z,11.80
2022-08-27T01:59:17.934Z,11.70
2022-08-27T02:01:48.319Z,12.00
2022-08-27T02:04:19.315Z,12.90
2022-08-27T02:06:49.521Z,12.10
2022-08-27T02:09:24.593Z,12.50
2022-08-27T02:11:56.718Z,12.00
2022-08-27T02:14:26.691Z,11.90
2022-08-27T02:16:58.231Z,11.90
2022-08-27T02:19:29.942Z,12.30
2022-08-27T02:22:04.056Z,11.90
2022-08-27T02:24:34.341Z,11.80
2022-08-27T02:27:05.113Z,10.90
2022-08-27T02:29:37.892Z,12.60
2022-08-27T02:32:05.861Z,11.50
2022-08-27T02:34:37.824Z,11.60
2022-08-27T02:37:09.479Z,11.20
2022-08-27T02:39:42.103Z,11.80
2022-08-27T02:42:19.040Z,12.70
2022-08-27T02:44:50.997Z,11.70
2022-08-27T02:47:21.107Z,11.50
2022-08-27T02:49:51.849Z,12.00
2022-08-27T02:52:24.893Z,11.40
2022-08-27T02:54:57.341Z,11.50
2022-08-27T02:57:36.409Z,10.80
2022-08-27T03:00:13.423Z,11.70
2022-08-27T03:02:45.171Z,11.90
2022-08-27T03:05:18.651Z,10.40
2022-08-27T03:07:50.334Z,11.20
2022-08-27T03:10:22.806Z,11.50
2022-08-27T03:12:54.461Z,11.30
2022-08-27T03:15:24.938Z,11.10
2022-08-27T03:18:11.763Z,11.30
2022-08-27T03:21:03.547Z,11.50
2022-08-27T03:23:36.102Z,11.30
2022-08-27T03:26:10.887Z,10.50
2022-08-27T03:28:42.740Z,10.30
2022-08-27T03:31:30.380Z,11.40
2022-08-27T03:34:04.471Z,10.70
2022-08-27T03:36:36.600Z,10.60
2022-08-27T03:39:05.442Z,11.30
2022-08-27T03:41:43.844Z,10.90
2022-08-27T03:44:27.190Z,10.50
2022-08-27T03:47:00.177Z,10.90
2022-08-27T03:49:32.280Z,10.80
2022-08-27T03:52:05.472Z,10.60
2022-08-27T03:54:40.045Z,10.00
2022-08-27T03:57:10.739Z,9.40
2022-08-27T03:59:42.379Z,10.90
2022-08-27T04:02:11.464Z,11.60
2022-08-27T04:04:44.888Z,11.60
2022-08-27T04:07:16.733Z,11.50
2022-08-27T04:09:48.287Z,11.30
2022-08-27T04:12:18.270Z,10.80
2022-08-27T04:14:49.070Z,10.90
2022-08-27T04:17:19.386Z,11.00
2022-08-27T04:19:49.600Z,10.90
2022-08-27T04:22:19.898Z,11.80
2022-08-27T04:24:50.192Z,13.40
2022-08-27T04:27:22.854Z,11.80
2022-08-27T04:29:58.743Z,14.10
2022-08-27T04:32:32.244Z,16.00
2022-08-27T04:35:04.312Z,14.90
2022-08-27T04:37:34.746Z,14.20
2022-08-27T04:40:03.229Z,14.20
2022-08-27T04:42:34.944Z,13.50
2022-08-27T04:45:05.110Z,12.40
2022-08-27T04:47:35.589Z,12.60
2022-08-27T04:50:06.452Z,12.50
2022-08-27T04:52:41.040Z,12.90
2022-08-27T04:55:13.318Z,13.70
2022-08-27T04:57:43.358Z,15.20
2022-08-27T05:00:15.141Z,19.80
2022-08-27T05:02:43.120Z,18.50
2022-08-27T05:05:15.470Z,16.50
2022-08-27T05:07:44.448Z,16.70
2022-08-27T05:10:12.292Z,14.30
2022-08-27T05:12:41.278Z,13.90
2022-08-27T05:15:12.724Z,14.50
2022-08-27T05:17:40.682Z,13.90
2022-08-27T05:20:12.137Z,13.40
2022-08-27T05:22:42.394Z,14.20
2022-08-27T05:25:13.820Z,11.90
2022-08-27T05:27:41.616Z,12.60
2022-08-27T05:30:13.289Z,12.00
2022-08-27T05:32:45.663Z,10.50
2022-08-27T05:35:15.772Z,11.30
2022-08-27T05:37:49.170Z,11.70
2022-08-27T05:40:19.415Z,10.70
2022-08-27T05:42:50.316Z,10.90
2022-08-27T05:45:20.071Z,11.20
2022-08-27T05:47:54.054Z,11.60
2022-08-27T05:50:23.757Z,11.10
2022-08-27T05:52:51.804Z,10.80
2022-08-27T05:55:22.360Z,11.20
2022-08-27T05:57:53.096Z,10.40
2022-08-27T06:00:39.580Z,10.70
2022-08-27T06:03:12.633Z,10.80
2022-08-27T06:05:44.379Z,10.70
2022-08-27T06:08:12.437Z,12.00
2022-08-27T06:10:43.895Z,10.30
2022-08-27T06:13:11.760Z,10.40
2022-08-27T06:15:43.282Z,10.70
2022-08-27T06:18:16.102Z,10.50
2022-08-27T06:20:44.049Z,9.60
2022-08-27T06:23:13.490Z,10.10
2022-08-27T06:25:44.512Z,9.50
2022-08-27T06:28:16.614Z,10.40
2022-08-27T06:30:44.450Z,9.40
2022-08-27T06:33:12.359Z,10.30
2022-08-27T06:35:40.307Z,9.40
2022-08-27T06:38:09.187Z,9.70
2022-08-27T06:40:44.370Z,10.40
2022-08-27T06:43:12.157Z,9.90
2022-08-27T06:45:43.699Z,9.50
2022-08-27T06:48:16.032Z,9.70
2022-08-27T06:50:46.951Z,11.20
2022-08-27T06:53:15.851Z,10.30
2022-08-27T06:55:49.092Z,10.00
2022-08-27T06:58:21.740Z,9.50
2022-08-27T07:00:54.879Z,9.10
2022-08-27T07:03:22.839Z,9.20
2022-08-27T07:05:50.655Z,9.80
2022-08-27T07:08:22.679Z,9.30
2022-08-27T07:10:50.434Z,9.60
2022-08-27T07:13:18.250Z,10.00
2022-08-27T07:15:46.070Z,10.60
2022-08-27T07:18:13.910Z,11.40
2022-08-27T07:20:45.697Z,10.30
2022-08-27T07:23:17.237Z,11.00
2022-08-27T07:25:48.993Z,10.30
2022-08-27T07:28:19.895Z,9.40
2022-08-27T07:30:47.812Z,9.90
2022-08-27T07:33:15.827Z,9.60
2022-08-27T07:35:48.119Z,9.50
2022-08-27T07:38:19.809Z,8.10
2022-08-27T07:40:47.686Z,9.50
2022-08-27T07:43:33.960Z,9.10
2022-08-27T07:46:02.064Z,8.60
2022-08-27T07:48:36.590Z,8.60
2022-08-27T07:51:09.461Z,8.50
2022-08-27T07:53:40.148Z,9.80
2022-08-27T07:56:12.856Z,9.00
2022-08-27T07:58:45.089Z,8.50
2022-08-27T08:01:17.611Z,9.10
2022-08-27T08:03:49.428Z,8.50
2022-08-27T08:06:20.261Z,8.40
2022-08-27T08:11:22.652Z,8.20
2022-08-27T08:13:50.524Z,9.40
2022-08-27T08:16:18.381Z,8.80
2022-08-27T08:18:46.242Z,7.60
2022-08-27T08:21:18.024Z,9.00
2022-08-27T08:23:49.586Z,8.30
2022-08-27T08:26:17.735Z,8.50
2022-08-27T08:28:45.899Z,8.90
2022-08-27T08:31:14.394Z,7.80
2022-08-27T08:33:44.369Z,7.80
2022-08-27T08:36:17.617Z,8.10
2022-08-27T08:38:50.660Z,7.40
2022-08-27T08:41:35.665Z,8.40
2022-08-27T08:44:17.450Z,8.10
2022-08-27T08:46:56.779Z,8.80
2022-08-27T08:49:33.233Z,7.50
2022-08-27T08:52:30.743Z,7.00
2022-08-27T08:55:31.183Z,7.90
2022-08-27T08:58:36.015Z,8.10
2022-08-27T09:01:10.623Z,8.50
2022-08-27T09:03:43.827Z,7.00
2022-08-27T09:06:40.676Z,7.50
2022-08-27T09:09:43.433Z,8.10
2022-08-27T09:12:32.620Z,8.30
2022-08-27T09:15:09.450Z,7.60
2022-08-27T09:17:48.886Z,7.70
2022-08-27T09:20:25.707Z,8.50
2022-08-27T09:23:22.043Z,8.00
2022-08-27T09:25:54.371Z,9.20
2022-08-27T09:28:48.914Z,8.70
2022-08-27T09:31:24.542Z,7.70
2022-08-27T09:33:56.120Z,9.20
2022-08-27T09:36:28.539Z,8.50
2022-08-27T09:39:09.612Z,7.10
2022-08-27T09:41:47.432Z,6.80
2022-08-27T09:44:23.198Z,6.50
2022-08-27T09:47:02.339Z,7.10
2022-08-27T09:49:40.707Z,6.50
2022-08-27T09:52:38.511Z,6.00
2022-08-27T09:55:10.433Z,6.50
2022-08-27T09:57:45.684Z,6.30
2022-08-27T10:00:19.172Z,7.00
2022-08-27T10:02:55.376Z,6.70
2022-08-27T10:05:53.040Z,6.60
2022-08-27T10:08:33.269Z,7.10
2022-08-27T10:11:14.553Z,6.90
2022-08-27T10:16:42.440Z,6.40
2022-08-27T10:19:47.886Z,7.40
2022-08-27T10:23:00.070Z,6.20
2022-08-27T10:25:58.694Z,7.40
2022-08-27T10:28:57.347Z,6.10
2022-08-27T10:31:56.736Z,6.20
2022-08-27T10:34:49.735Z,5.80
2022-08-27T10:38:01.264Z,6.60
2022-08-27T10:40:52.468Z,6.60
2022-08-27T10:46:18.417Z,5.80
2022-08-27T10:49:08.232Z,7.20
2022-08-27T10:52:15.967Z,6.00
2022-08-27T10:55:11.874Z,6.40
2022-08-27T10:58:00.872Z,5.70
2022-08-27T11:00:58.389Z,6.40
2022-08-27T11:03:52.053Z,7.30
2022-08-27T11:07:03.481Z,6.20
2022-08-27T11:09:56.796Z,5.20
2022-08-27T11:12:37.236Z,5.40
2022-08-27T11:15:32.823Z,5.20
2022-08-27T11:18:38.107Z,6.20
2022-08-27T11:21:16.922Z,5.90
2022-08-27T11:24:14.824Z,5.20
2022-08-27T11:26:47.100Z,6.20
2022-08-27T11:29:52.672Z,5.90
2022-08-27T11:32:27.827Z,5.20
2022-08-27T11:35:34.904Z,5.40
2022-08-27T11:38:18.265Z,5.90
2022-08-27T11:41:17.592Z,6.20
2022-08-27T11:43:49.793Z,6.10
2022-08-27T11:49:02.567Z,5.90
2022-08-27T11:51:52.994Z,6.40
2022-08-27T11:54:45.560Z,5.90
2022-08-27T11:57:36.378Z,5.80
2022-08-27T12:00:20.278Z,5.60
2022-08-27T12:02:58.697Z,5.80
2022-08-27T12:05:53.631Z,6.00
2022-08-27T12:08:25.382Z,6.70
2022-08-27T12:11:01.979Z,5.70
2022-08-27T12:14:04.175Z,6.70
2022-08-27T12:16:58.396Z,5.40
2022-08-27T12:19:34.837Z,6.10
2022-08-27T12:23:00.699Z,5.90
2022-08-27T12:25:32.721Z,5.50
2022-08-27T12:28:07.097Z,5.60
2022-08-27T12:30:37.183Z,6.60
2022-08-27T12:33:45.552Z,6.90
2022-08-27T12:36:33.739Z,5.20
2022-08-27T12:39:16.662Z,6.20
2022-08-27T12:41:50.043Z,6.70
2022-08-27T12:44:31.587Z,5.60
2022-08-27T12:47:08.013Z,5.80
2022-08-27T12:49:55.122Z,6.20
2022-08-27T12:53:00.248Z,5.30
2022-08-27T12:56:08.911Z,6.00
2022-08-27T12:59:11.695Z,5.60
2022-08-27T13:04:27.469Z,4.80
2022-08-27T13:06:59.361Z,5.20
2022-08-27T13:09:32.405Z,5.70
2022-08-27T13:12:19.866Z,5.30
2022-08-27T13:14:56.804Z,5.00
2022-08-27T13:17:31.533Z,5.20
2022-08-27T13:20:04.423Z,5.30
2022-08-27T13:22:41.355Z,5.50
2022-08-27T13:25:33.592Z,5.50
2022-08-27T13:28:23.624Z,5.10
2022-08-27T13:30:55.338Z,5.40
2022-08-27T13:33:30.418Z,5.80
2022-08-27T13:36:03.604Z,5.70
2022-08-27T13:38:38.640Z,5.80
2022-08-27T13:41:22.653Z,5.00
2022-08-27T13:43:58.990Z,4.80
2022-08-27T13:46:34.441Z,5.50
2022-08-27T13:49:04.826Z,5.10
2022-08-27T13:51:38.623Z,4.80
2022-08-27T13:54:16.124Z,5.60
2022-08-27T13:56:49.671Z,5.80
2022-08-27T13:59:22.334Z,5.00
2022-08-27T14:01:59.666Z,11.10
2022-08-27T14:04:45.554Z,6.20
2022-08-27T14:07:17.328Z,6.50
2022-08-27T14:09:55.135Z,5.90
2022-08-27T14:12:33.669Z,5.70
2022-08-27T14:15:25.613Z,5.20
2022-08-27T14:17:54.170Z,5.50
2022-08-27T14:20:28.162Z,5.00
2022-08-27T14:25:29.995Z,4.90
2022-08-27T14:28:00.953Z,5.50
2022-08-27T14:30:33.043Z,5.10
2022-08-27T14:33:05.349Z,5.20
2022-08-27T14:35:38.847Z,5.20
2022-08-27T14:38:35.452Z,4.80
2022-08-27T14:41:03.387Z,5.30
2022-08-27T14:43:42.037Z,5.40
2022-08-27T14:46:27.158Z,6.90
2022-08-27T14:49:01.261Z,5.50
2022-08-27T14:51:35.877Z,5.20
2022-08-27T14:54:06.577Z,6.50
2022-08-27T14:56:37.926Z,5.10
2022-08-27T14:59:08.190Z,5.40
2022-08-27T15:01:40.194Z,5.20
2022-08-27T15:04:12.072Z,5.10
2022-08-27T15:06:43.728Z,5.00
2022-08-27T15:09:11.606Z,5.30
2022-08-27T15:11:43.647Z,5.60
2022-08-27T15:14:31.671Z,5.50
2022-08-27T15:17:03.391Z,5.30
2022-08-27T15:19:54.362Z,5.50
2022-08-27T15:22:27.756Z,5.60
2022-08-27T15:25:02.954Z,5.00
2022-08-27T15:27:38.243Z,5.20
2022-08-27T15:30:16.846Z,5.30
2022-08-27T15:32:49.631Z,5.50
2022-08-27T15:35:28.402Z,6.00
2022-08-27T15:38:00.921Z,5.70
2022-08-27T15:43:10.165Z,4.80
2022-08-27T15:45:38.005Z,4.90
2022-08-27T15:48:09.231Z,5.30
2022-08-27T15:50:42.286Z,5.50
2022-08-27T15:53:14.998Z,5.60
2022-08-27T15:55:47.700Z,5.40
2022-08-27T15:58:19.432Z,6.00
2022-08-27T16:00:48.791Z,6.30
2022-08-27T16:03:35.698Z,5.30
2022-08-27T16:06:08.985Z,6.30
2022-08-27T16:08:41.920Z,6.20
2022-08-27T16:11:10.058Z,5.50
2022-08-27T16:13:37.990Z,6.00
2022-08-27T16:16:14.015Z,6.40
2022-08-27T16:18:44.642Z,5.10
2022-08-27T16:21:16.186Z,5.20
2022-08-27T16:23:45.381Z,7.00
2022-08-27T16:26:17.728Z,6.40
2022-08-27T16:28:49.481Z,6.60
2022-08-27T16:31:17.321Z,7.20
2022-08-27T16:33:47.102Z,6.90
2022-08-27T16:36:14.906Z,7.40
2022-08-27T16:38:42.705Z,7.10
2022-08-27T16:41:14.136Z,7.30
2022-08-27T16:43:45.795Z,6.70
2022-08-27T16:46:13.631Z,7.00
2022-08-27T16:49:03.721Z,5.60
2022-08-27T16:51:38.143Z,6.50
2022-08-27T16:54:11.690Z,6.30
2022-08-27T16:56:43.872Z,5.40
2022-08-27T16:59:17.466Z,5.90
2022-08-27T17:01:52.192Z,6.50
2022-08-27T17:04:31.197Z,6.10
2022-08-27T17:07:03.972Z,5.80
2022-08-27T17:09:32.172Z,6.20
2022-08-27T17:12:08.099Z,6.60
2022-08-27T17:14:39.836Z,6.10
2022-08-27T17:17:13.415Z,6.70
2022-08-27T17:19:45.712Z,6.60
2022-08-27T17:22:17.784Z,6.80
2022-08-27T17:24:49.593Z,6.00
2022-08-27T17:27:24.161Z,6.90
2022-08-27T17:29:52.112Z,7.30
2022-08-27T17:32:26.779Z,6.40
2022-08-27T17:35:00.237Z,6.20
2022-08-27T17:37:38.115Z,6.80
2022-08-27T17:40:10.514Z,7.20
2022-08-27T17:42:38.404Z,8.40
2022-08-27T17:45:11.698Z,8.40
2022-08-27T17:47:39.751Z,9.30
2022-08-27T17:50:09.913Z,8.30
2022-08-27T17:52:40.582Z,7.90
2022-08-27T17:55:09.925Z,7.60
2022-08-27T17:57:41.053Z,7.60
2022-08-27T18:00:15.461Z,8.70
2022-08-27T18:02:48.926Z,8.60
2022-08-27T18:05:24.815Z,9.20
2022-08-27T18:07:57.545Z,9.10
2022-08-27T18:10:30.312Z,8.70
2022-08-27T18:13:03.988Z,8.40
2022-08-27T18:15:36.974Z,8.00
2022-08-27T18:20:42.524Z,7.80
2022-08-27T18:23:14.961Z,8.50
2022-08-27T18:25:47.695Z,8.00
2022-08-27T18:28:20.358Z,7.70
2022-08-27T18:30:52.306Z,7.90
2022-08-27T18:33:20.276Z,8.00
2022-08-27T18:35:48.101Z,7.90
2022-08-27T18:38:16.087Z,10.30
2022-08-27T18:40:49.939Z,12.30
2022-08-27T18:43:24.125Z,16.40
2022-08-27T18:45:52.099Z,16.20
2022-08-27T18:48:25.962Z,14.70
2022-08-27T18:50:59.196Z,15.20
2022-08-27T18:53:33.003Z,15.60
2022-08-27T18:56:05.572Z,16.90
2022-08-27T18:58:38.801Z,14.60
2022-08-27T19:01:17.269Z,13.90
2022-08-27T19:03:55.816Z,12.10
2022-08-27T19:06:24.323Z,11.60
2022-08-27T19:08:52.481Z,12.20
2022-08-27T19:11:20.544Z,13.90
2022-08-27T19:13:50.820Z,13.80
2022-08-27T19:16:25.593Z,15.60
2022-08-27T19:18:53.443Z,14.50
2022-08-27T19:21:21.199Z,15.80
2022-08-27T19:23:58.634Z,19.20
2022-08-27T19:26:30.589Z,17.70
2022-08-27T19:29:00.651Z,17.60
2022-08-27T19:31:30.704Z,17.80
2022-08-27T19:34:00.428Z,16.80
2022-08-27T19:36:28.318Z,14.50
2022-08-27T19:38:56.195Z,15.90
2022-08-27T19:41:27.736Z,18.40
2022-08-27T19:44:00.064Z,17.10
2022-08-27T19:46:32.127Z,16.40
2022-08-27T19:48:59.877Z,12.70
2022-08-27T19:51:32.694Z,15.10
2022-08-27T19:54:00.472Z,16.10
2022-08-27T19:56:34.581Z,14.40
2022-08-27T19:59:16.245Z,14.10
2022-08-27T20:01:54.284Z,14.60
2022-08-27T20:04:22.298Z,14.00
2022-08-27T20:06:50.210Z,30.40
2022-08-27T20:09:24.734Z,19.50
2022-08-27T20:11:55.725Z,16.10
2022-08-27T20:14:23.553Z,14.60
2022-08-27T20:16:57.630Z,14.20
2022-08-27T20:19:29.060Z,13.90
2022-08-27T20:21:57.050Z,14.00
2022-08-27T20:24:27.278Z,14.60
2022-08-27T20:26:57.869Z,14.80
2022-08-27T20:29:32.434Z,14.70
2022-08-27T20:32:02.727Z,13.70
2022-08-27T20:34:39.545Z,14.20
2022-08-27T20:37:12.183Z,13.60
2022-08-27T20:39:44.904Z,14.30
2022-08-27T20:42:12.872Z,14.90
2022-08-27T20:44:40.661Z,13.40
2022-08-27T20:47:10.942Z,14.30
2022-08-27T20:49:41.623Z,15.00
2022-08-27T20:52:11.488Z,13.80
2022-08-27T20:54:41.008Z,13.70
2022-08-27T20:57:09.673Z,13.20
2022-08-27T20:59:57.629Z,15.80
2022-08-27T21:02:28.413Z,11.10
2022-08-27T21:04:57.268Z,12.80
2022-08-27T21:07:25.948Z,13.30
2022-08-27T21:09:56.857Z,13.40
2022-08-27T21:12:27.046Z,14.10
2022-08-27T21:14:59.064Z,15.00
2022-08-27T21:17:29.186Z,13.80
2022-08-27T21:19:58.346Z,14.00
2022-08-27T21:22:28.077Z,14.80
2022-08-27T21:24:55.868Z,14.50
2022-08-27T21:27:24.246Z,14.30
2022-08-27T21:29:55.094Z,13.90
2022-08-27T21:32:23.444Z,15.50
2022-08-27T21:34:52.013Z,14.80
2022-08-27T21:37:22.461Z,13.20
2022-08-27T21:39:52.060Z,14.20
2022-08-27T21:42:20.922Z,15.20
2022-08-27T21:44:49.904Z,15.00
2022-08-27T21:47:17.941Z,15.30
2022-08-27T21:49:45.690Z,12.50
2022-08-27T21:52:15.777Z,12.50
2022-08-27T21:54:44.602Z,11.10
2022-08-27T21:57:16.031Z,12.20
2022-08-27T21:59:48.623Z,12.30
2022-08-27T22:02:38.880Z,12.00
2022-08-27T22:05:09.278Z,13.10
2022-08-27T22:07:37.121Z,12.70
2022-08-27T22:10:07.027Z,12.80
2022-08-27T22:12:35.303Z,13.40
2022-08-27T22:15:05.305Z,13.90
2022-08-27T22:17:37.117Z,13.00
2022-08-27T22:20:08.684Z,13.80
2022-08-27T22:22:40.375Z,13.30
2022-08-27T22:25:10.489Z,15.80
2022-08-27T22:27:41.112Z,13.30
2022-08-27T22:30:12.127Z,15.20
2022-08-27T22:32:42.272Z,14.90
2022-08-27T22:35:14.617Z,14.10
2022-08-27T22:37:44.620Z,15.10
2022-08-27T22:40:20.377Z,14.90
2022-08-27T22:42:51.246Z,15.60
2022-08-27T22:45:22.143Z,14.20
2022-08-27T22:47:51.897Z,15.70
2022-08-27T22:50:24.427Z,14.40
2022-08-27T22:52:53.282Z,14.00
2022-08-27T22:55:25.250Z,14.60
2022-08-27T22:57:57.070Z,14.60
2022-08-27T23:00:31.832Z,15.30
2022-08-27T23:03:02.440Z,14.10
2022-08-27T23:05:40.533Z,14.30
2022-08-27T23:08:17.350Z,14.30
2022-08-27T23:10:45.428Z,14.50
2022-08-27T23:13:13.331Z,12.20
2022-08-27T23:15:46.602Z,12.40
2022-08-27T23:18:19.304Z,13.30
2022-08-27T23:20:47.477Z,11.50
2022-08-27T23:23:15.210Z,12.80
2022-08-27T23:26:05.144Z,12.60
2022-08-27T23:28:32.925Z,12.30
2022-08-27T23:31:05.305Z,11.60
2022-08-27T23:33:40.142Z,11.50
2022-08-27T23:36:12.077Z,11.70
2022-08-27T23:38:39.949Z,11.60
2022-08-27T23:41:11.841Z,11.50
2022-08-27T23:43:39.863Z,11.00
2022-08-27T23:46:13.222Z,11.70
2022-08-27T23:48:41.289Z,12.10
2022-08-27T23:51:09.792Z,11.80
2022-08-27T23:53:41.615Z,12.20
2022-08-27T23:56:13.030Z,11.00
2022-08-27T23:58:42.437Z,12.30
